Time;durP1;ratioP1;P1;durP2;ratioP2;P2;SDS_P1;SDS_P2;PMS_P1;PMS_P2;Temp;Humidity;BMP_temperature;BMP_pressure;BME280_temperature;BME280_humidity;BME280_pressure;Samples;Min_cycle;Max_cycle;Signal;HPM_P1;HPM_P2
2023/02/25 00:01:17;;;;;;;;;;;;;;;1.02;94.10;92854.59;5023177;28;20676;-51
2023/02/25 00:03:42;;;;;;;;;;;;;;;0.94;93.25;92859.09;5027624;28;20352;-53
2023/02/25 00:06:08;;;;;;;;;;;;;;;0.70;94.85;92865.09;5019675;28;19964;-51
2023/02/25 00:08:34;;;;;;;;;;;;;;;0.71;94.91;92866.56;5020394;28;19940;-51
2023/02/25 00:11:00;;;;;;;;;;;;;;;0.63;95.58;92859.44;5022842;28;19921;-53
2023/02/25 00:13:26;;;;;;;;;;;;;;;0.77;95.16;92853.72;5025581;28;19913;-54
2023/02/25 00:15:51;;;;;;;;;;;;;;;0.88;95.29;92861.09;5026352;28;19939;-53
2023/02/25 00:18:17;;;;;;;;;;;;;;;0.83;94.94;92861.84;5025239;28;20397;-52
2023/02/25 00:20:42;;;;;;;;;;;;;;;0.74;94.54;92867.56;5025382;28;19921;-55
2023/02/25 00:23:07;;;;;;;;;;;;;;;0.81;95.53;92860.84;5024999;28;19960;-54
2023/02/25 00:25:33;;;;;;;;;;;;;;;0.61;95.71;92859.19;5026650;28;19921;-53
2023/02/25 00:27:58;;;;;;;;;;;;;;;0.49;95.69;92860.47;5016832;28;19975;-54
2023/02/25 00:30:23;;;;;;;;;;;;;;;0.58;95.77;92850.09;5026587;28;19923;-54
2023/02/25 00:32:49;;;;;;;;;;;;;;;0.58;95.31;92857.50;5019692;28;19924;-53
2023/02/25 00:35:14;;;;;;;;;;;;;;;0.48;94.92;92850.84;4999549;28;19922;-53
2023/02/25 00:37:39;;;;;;;;;;;;;;;0.38;95.04;92849.66;5024837;28;19925;-52
2023/02/25 00:40:09;;;;;;;;;;;;;;;0.40;94.93;92841.75;5024550;28;19928;-54
2023/02/25 00:42:34;;;;;;;;;;;;;;;0.48;94.15;92845.41;5018896;28;20019;-55
2023/02/25 00:44:59;;;;;;;;;;;;;;;0.55;93.90;92839.47;5025148;28;20000;-54
2023/02/25 00:47:25;;;;;;;;;;;;;;;0.50;93.93;92832.81;5023365;28;19917;-53
2023/02/25 00:49:51;;;;;;;;;;;;;;;0.51;94.34;92830.84;5024792;28;19921;-52
2023/02/25 00:52:16;;;;;;;;;;;;;;;0.44;94.26;92834.81;5025466;28;19917;-53
2023/02/25 00:54:41;;;;;;;;;;;;;;;0.44;94.40;92829.38;5025486;28;19920;-51
2023/02/25 00:57:07;;;;;;;;;;;;;;;0.50;94.19;92827.38;5022335;28;19921;-51
2023/02/25 00:59:32;;;;;;;;;;;;;;;0.55;94.64;92825.91;5025931;28;19921;-52
2023/02/25 01:01:57;;;;;;;;;;;;;;;0.74;94.69;92822.13;5026010;28;20353;-52
2023/02/25 01:04:23;;;;;;;;;;;;;;;0.85;93.57;92820.56;5017419;28;19964;-52
2023/02/25 01:06:48;;;;;;;;;;;;;;;0.53;94.11;92820.22;5022290;28;19925;-53
2023/02/25 01:09:14;;;;;;;;;;;;;;;0.42;94.31;92815.56;5019165;28;20626;-53
2023/02/25 01:11:40;;;;;;;;;;;;;;;0.29;94.67;92809.19;5022997;28;19917;-51
2023/02/25 01:14:07;;;;;;;;;;;;;;;0.27;95.92;92803.53;5021384;28;20324;-53
2023/02/25 01:16:33;;;;;;;;;;;;;;;0.42;96.80;92798.53;5021356;28;19921;-56
2023/02/25 01:18:59;;;;;;;;;;;;;;;0.32;96.02;92802.78;5020093;28;19921;-55
2023/02/25 01:21:27;;;;;;;;;;;;;;;0.51;94.62;92792.81;5023674;28;19975;-51
2023/02/25 01:23:59;;;;;;;;;;;;;;;0.42;94.95;92793.09;5029912;28;19913;-52
2023/02/25 01:26:29;;;;;;;;;;;;;;;0.51;95.62;92784.69;5026304;28;19921;-55
2023/02/25 01:28:54;;;;;;;;;;;;;;;0.50;95.45;92791.34;5028964;28;19921;-54
2023/02/25 01:31:23;;;;;;;;;;;;;;;0.31;95.42;92783.03;5027333;28;19948;-53
2023/02/25 01:33:51;;;;;;;;;;;;;;;0.32;95.77;92783.78;5022441;28;19925;-53
2023/02/25 01:36:17;;;;;;;;;;;;;;;0.34;94.75;92792.91;5024538;28;19948;-52
2023/02/25 01:38:42;;;;;;;;;;;;;;;0.19;92.58;92797.13;5019059;28;19944;-53
2023/02/25 01:41:07;;;;;;;;;;;;;;;0.14;93.03;92790.47;5017627;28;19979;-54
2023/02/25 01:43:33;;;;;;;;;;;;;;;0.28;92.99;92781.28;5026690;28;19987;-52
2023/02/25 01:45:59;;;;;;;;;;;;;;;0.05;93.44;92777.19;5027644;28;19921;-54
2023/02/25 01:48:25;;;;;;;;;;;;;;;0.22;93.41;92771.72;5026539;28;19924;-53
2023/02/25 01:50:51;;;;;;;;;;;;;;;0.03;95.09;92774.22;5029993;28;19921;-51
2023/02/25 01:53:17;;;;;;;;;;;;;;;0.18;94.69;92773.94;5021876;28;19917;-52
2023/02/25 01:55:42;;;;;;;;;;;;;;;0.17;94.57;92772.47;5022732;28;19927;-52
2023/02/25 01:58:08;;;;;;;;;;;;;;;0.18;94.84;92774.69;5022694;28;19918;-52
2023/02/25 02:00:34;;;;;;;;;;;;;;;0.02;94.74;92780.16;5021691;28;19927;-54
2023/02/25 02:02:59;;;;;;;;;;;;;;;0.05;95.29;92777.19;5024608;28;19917;-53
2023/02/25 02:05:26;;;;;;;;;;;;;;;0.09;93.93;92771.50;5023541;28;19921;-52
2023/02/25 02:07:51;;;;;;;;;;;;;;;0.12;94.67;92782.09;5023207;28;19963;-53
2023/02/25 02:10:18;;;;;;;;;;;;;;;0.20;94.41;92779.59;5027439;28;19945;-51
2023/02/25 02:12:43;;;;;;;;;;;;;;;0.29;93.29;92774.66;5026969;28;19960;-54
2023/02/25 02:15:11;;;;;;;;;;;;;;;0.04;94.05;92772.25;5028793;28;19953;-54
2023/02/25 02:17:47;;;;;;;;;;;;;;;0.15;95.56;92772.97;5022987;28;19921;-52
2023/02/25 02:20:12;;;;;;;;;;;;;;;0.15;96.06;92764.09;5007467;28;20325;-53
2023/02/25 02:22:43;;;;;;;;;;;;;;;-0.07;97.05;92770.31;5025368;28;19924;-52
2023/02/25 02:25:17;;;;;;;;;;;;;;;0.01;97.15;92771.28;5027215;28;19917;-51
2023/02/25 02:27:43;;;;;;;;;;;;;;;0.19;96.85;92764.56;5026886;28;19939;-54
2023/02/25 02:30:11;;;;;;;;;;;;;;;0.23;96.16;92759.59;5026319;28;19917;-54
2023/02/25 02:32:43;;;;;;;;;;;;;;;0.20;95.45;92763.31;5021903;28;20405;-50
2023/02/25 02:35:14;;;;;;;;;;;;;;;0.21;95.24;92765.56;5025745;28;19925;-51
2023/02/25 02:37:48;;;;;;;;;;;;;;;0.24;95.09;92755.66;5019310;28;19965;-54
2023/02/25 02:40:14;;;;;;;;;;;;;;;0.26;95.11;92759.34;5025456;28;20312;-53
2023/02/25 02:42:42;;;;;;;;;;;;;;;-0.02;96.28;92759.44;5027642;28;19925;-54
2023/02/25 02:45:13;;;;;;;;;;;;;;;-0.10;96.40;92755.03;5023953;28;19978;-54
2023/02/25 02:47:42;;;;;;;;;;;;;;;-0.23;96.36;92755.53;5018504;28;19926;-54
2023/02/25 02:50:09;;;;;;;;;;;;;;;-0.08;96.25;92758.72;5022771;28;19924;-56
2023/02/25 02:52:37;;;;;;;;;;;;;;;-0.01;96.20;92757.47;5025164;28;19939;-55
2023/02/25 02:55:06;;;;;;;;;;;;;;;0.03;95.55;92754.47;5021445;28;19978;-55
2023/02/25 02:57:31;;;;;;;;;;;;;;;0.10;94.54;92749.28;5022139;28;20007;-55
2023/02/25 02:59:58;;;;;;;;;;;;;;;0.10;94.54;92735.72;5022800;28;20000;-55
2023/02/25 03:02:26;;;;;;;;;;;;;;;-0.02;95.41;92743.16;5022504;28;19925;-52
2023/02/25 03:04:52;;;;;;;;;;;;;;;0.08;96.21;92745.59;5022500;28;20428;-51
2023/02/25 03:07:18;;;;;;;;;;;;;;;0.10;95.89;92741.16;5025664;28;20435;-51
2023/02/25 03:09:51;;;;;;;;;;;;;;;0.24;94.98;92745.53;5025663;28;19971;-53
2023/02/25 03:12:16;;;;;;;;;;;;;;;-0.14;95.44;92733.56;5025134;28;20021;-54
2023/02/25 03:14:41;;;;;;;;;;;;;;;-0.08;95.61;92744.41;5024205;28;19960;-51
2023/02/25 03:17:11;;;;;;;;;;;;;;;-0.41;94.90;92745.19;5024669;28;19928;-53
2023/02/25 03:19:38;;;;;;;;;;;;;;;-0.54;96.30;92739.56;5020360;28;19944;-53
2023/02/25 03:22:06;;;;;;;;;;;;;;;-0.34;97.21;92742.00;5019746;28;20319;-54
2023/02/25 03:24:33;;;;;;;;;;;;;;;-0.19;96.12;92739.75;5025243;28;19925;-51
2023/02/25 03:27:00;;;;;;;;;;;;;;;-0.32;97.08;92734.09;5018274;28;19926;-53
2023/02/25 03:29:27;;;;;;;;;;;;;;;-0.21;97.34;92736.78;5025997;28;19924;-55
2023/02/25 03:31:55;;;;;;;;;;;;;;;-0.25;96.75;92738.28;5021559;28;19975;-53
2023/02/25 03:34:22;;;;;;;;;;;;;;;-0.16;96.74;92727.16;5023486;28;19983;-53
2023/02/25 03:36:58;;;;;;;;;;;;;;;-0.41;96.63;92734.34;5025946;28;19928;-54
2023/02/25 03:39:25;;;;;;;;;;;;;;;-0.55;95.97;92729.22;5014323;28;20558;-55
2023/02/25 03:41:51;;;;;;;;;;;;;;;-0.75;96.07;92727.50;5019320;28;20055;-52
2023/02/25 03:44:21;;;;;;;;;;;;;;;-0.77;95.84;92727.25;5024623;28;20008;-53
2023/02/25 03:46:46;;;;;;;;;;;;;;;-0.76;96.17;92721.34;5026766;28;19928;-54
2023/02/25 03:49:14;;;;;;;;;;;;;;;-0.70;95.48;92721.34;5024076;28;19914;-55
2023/02/25 03:51:39;;;;;;;;;;;;;;;-0.84;96.50;92714.94;5023238;28;19964;-55
2023/02/25 03:54:05;;;;;;;;;;;;;;;-0.65;96.39;92717.88;5023901;28;20645;-54
2023/02/25 03:56:38;;;;;;;;;;;;;;;-0.70;95.45;92713.22;5024890;28;19940;-56
2023/02/25 03:59:04;;;;;;;;;;;;;;;-0.65;95.22;92717.16;5027059;28;19999;-55
2023/02/25 04:01:29;;;;;;;;;;;;;;;-0.46;94.48;92708.00;5025634;28;19968;-55
2023/02/25 04:03:54;;;;;;;;;;;;;;;-0.59;94.08;92715.91;5026744;28;19936;-56
2023/02/25 04:06:21;;;;;;;;;;;;;;;-0.67;95.53;92712.22;5021756;28;19925;-52
2023/02/25 04:08:46;;;;;;;;;;;;;;;-0.74;95.51;92704.59;5023208;28;20007;-53
2023/02/25 04:11:11;;;;;;;;;;;;;;;-0.69;95.86;92689.56;5025746;28;20013;-53
2023/02/25 04:13:36;;;;;;;;;;;;;;;-0.92;95.32;92689.56;5025466;28;19921;-52
2023/02/25 04:16:02;;;;;;;;;;;;;;;-0.90;95.98;92684.41;5023362;28;20016;-53
2023/02/25 04:18:27;;;;;;;;;;;;;;;-0.75;95.92;92681.44;5020234;28;19944;-52
2023/02/25 04:20:52;;;;;;;;;;;;;;;-0.57;95.01;92675.50;5026011;28;19920;-53
2023/02/25 04:23:17;;;;;;;;;;;;;;;-0.55;94.97;92670.31;5024204;28;19976;-54
2023/02/25 04:25:43;;;;;;;;;;;;;;;-0.70;94.53;92660.97;5021247;28;20405;-54
2023/02/25 04:28:08;;;;;;;;;;;;;;;-0.65;95.23;92669.09;5026325;28;19921;-54
2023/02/25 04:30:34;;;;;;;;;;;;;;;-0.68;95.48;92658.50;5025141;28;20108;-50
2023/02/25 04:32:59;;;;;;;;;;;;;;;-0.65;96.23;92665.66;5020104;28;19921;-51
2023/02/25 04:35:24;;;;;;;;;;;;;;;-0.63;95.67;92666.63;5026513;28;20521;-52
2023/02/25 04:37:50;;;;;;;;;;;;;;;-0.78;96.34;92660.75;5022320;28;19925;-53
2023/02/25 04:40:16;;;;;;;;;;;;;;;-0.91;96.69;92665.94;5026397;28;19917;-52
2023/02/25 04:42:41;;;;;;;;;;;;;;;-0.85;96.67;92672.09;5024263;28;20234;-53
2023/02/25 04:45:07;;;;;;;;;;;;;;;-0.73;95.18;92673.53;5025904;28;19914;-51
2023/02/25 04:47:33;;;;;;;;;;;;;;;-0.68;95.16;92670.09;5023987;28;20621;-52
2023/02/25 04:49:58;;;;;;;;;;;;;;;-0.63;94.91;92665.91;5023572;28;20436;-52
2023/02/25 04:52:23;;;;;;;;;;;;;;;-0.50;93.95;92660.69;5023042;28;20023;-50
2023/02/25 04:54:49;;;;;;;;;;;;;;;-0.74;94.45;92644.97;5020114;28;20003;-52
2023/02/25 04:57:14;;;;;;;;;;;;;;;-0.76;95.16;92647.44;5023581;28;19952;-50
2023/02/25 04:59:40;;;;;;;;;;;;;;;-0.84;95.75;92643.75;5024882;28;20404;-52
2023/02/25 05:02:06;;;;;;;;;;;;;;;-0.83;96.44;92645.22;5025164;28;20664;-51
2023/02/25 05:04:31;;;;;;;;;;;;;;;-0.84;96.71;92654.56;5025082;28;19925;-51
2023/02/25 05:06:57;;;;;;;;;;;;;;;-0.94;97.60;92626.28;5022927;28;19928;-54
2023/02/25 05:09:22;;;;;;;;;;;;;;;-0.82;98.21;92650.16;5025804;28;19927;-53
2023/02/25 05:11:47;;;;;;;;;;;;;;;-0.81;98.46;92640.06;5023933;28;19995;-52
2023/02/25 05:14:12;;;;;;;;;;;;;;;-0.72;98.23;92647.19;5022026;28;19927;-54
2023/02/25 05:16:38;;;;;;;;;;;;;;;-0.65;97.85;92650.09;5024001;28;19990;-54
2023/02/25 05:19:03;;;;;;;;;;;;;;;-0.64;96.92;92648.88;5019335;28;19924;-52
2023/02/25 05:21:28;;;;;;;;;;;;;;;-0.54;95.36;92649.38;5016208;28;19928;-53
2023/02/25 05:23:54;;;;;;;;;;;;;;;-0.45;95.27;92652.53;5016095;28;19917;-53
2023/02/25 05:26:20;;;;;;;;;;;;;;;-0.28;95.14;92652.50;5022205;28;19952;-52
2023/02/25 05:28:52;;;;;;;;;;;;;;;-0.38;94.45;92660.16;5022083;28;19921;-55
2023/02/25 05:31:18;;;;;;;;;;;;;;;-0.31;94.68;92654.22;5021142;28;19917;-53
2023/02/25 05:33:43;;;;;;;;;;;;;;;-0.13;93.95;92652.94;5023627;28;19917;-52
2023/02/25 05:36:09;;;;;;;;;;;;;;;-0.05;93.83;92649.19;5019377;28;19983;-52
2023/02/25 05:38:35;;;;;;;;;;;;;;;-0.22;93.26;92650.50;5023497;28;19921;-54
2023/02/25 05:41:01;;;;;;;;;;;;;;;-0.35;94.26;92661.88;5018869;28;20402;-55
2023/02/25 05:43:26;;;;;;;;;;;;;;;-0.23;93.70;92665.28;5021268;28;19921;-55
2023/02/25 05:45:55;;;;;;;;;;;;;;;-0.26;93.58;92671.72;5022797;28;20305;-55
2023/02/25 05:48:20;;;;;;;;;;;;;;;-0.03;93.06;92668.44;5021382;28;19925;-55
2023/02/25 05:50:45;;;;;;;;;;;;;;;0.06;91.82;92678.25;5020098;28;20440;-54
2023/02/25 05:53:11;;;;;;;;;;;;;;;0.33;91.00;92676.63;5019084;28;20387;-55
2023/02/25 05:55:39;;;;;;;;;;;;;;;0.29;90.98;92689.75;5019659;28;19952;-55
2023/02/25 05:58:05;;;;;;;;;;;;;;;0.32;91.33;92680.59;5018539;28;19926;-55
2023/02/25 06:00:30;;;;;;;;;;;;;;;0.56;89.94;92678.72;5019862;28;20713;-55
2023/02/25 06:02:56;;;;;;;;;;;;;;;0.53;90.24;92690.59;5016733;28;19975;-54
2023/02/25 06:05:21;;;;;;;;;;;;;;;0.61;90.26;92688.81;5022093;28;20193;-56
2023/02/25 06:07:47;;;;;;;;;;;;;;;0.82;89.73;92700.06;5021774;28;19925;-55
2023/02/25 06:10:12;;;;;;;;;;;;;;;1.19;89.29;92703.00;5026035;28;19974;-50
2023/02/25 06:12:37;;;;;;;;;;;;;;;1.20;88.09;92712.63;5021642;28;19917;-51
2023/02/25 06:15:03;;;;;;;;;;;;;;;1.64;86.77;92718.94;5019039;28;20360;-55
2023/02/25 06:17:28;;;;;;;;;;;;;;;1.50;87.36;92726.22;5021312;28;19996;-55
2023/02/25 06:19:53;;;;;;;;;;;;;;;1.59;86.70;92727.88;5023547;28;19951;-56
2023/02/25 06:22:19;;;;;;;;;;;;;;;1.64;87.71;92727.84;5020266;28;19979;-56
2023/02/25 06:24:44;;;;;;;;;;;;;;;2.03;86.85;92725.47;5019921;28;19921;-55
2023/02/25 06:27:09;;;;;;;;;;;;;;;1.95;86.75;92726.56;5024122;28;20007;-52
2023/02/25 06:29:35;;;;;;;;;;;;;;;2.14;86.90;92722.59;5021502;28;20413;-55
2023/02/25 06:32:00;;;;;;;;;;;;;;;2.27;85.96;92717.25;5022292;28;19975;-53
2023/02/25 06:34:31;;;;;;;;;;;;;;;2.28;85.84;92721.47;5018655;28;19932;-54
2023/02/25 06:36:57;;;;;;;;;;;;;;;2.43;84.71;92723.78;5019463;28;20089;-50
2023/02/25 06:39:22;;;;;;;;;;;;;;;2.60;84.48;92727.03;5020603;28;20015;-50
2023/02/25 06:41:48;;;;;;;;;;;;;;;2.12;85.74;92721.66;5016827;28;19959;-50
2023/02/25 06:44:13;;;;;;;;;;;;;;;2.16;85.95;92722.84;5019172;28;19927;-51
2023/02/25 06:46:39;;;;;;;;;;;;;;;2.36;86.68;92718.19;5020716;28;19924;-50
2023/02/25 06:49:04;;;;;;;;;;;;;;;2.05;90.07;92706.66;5024462;28;20055;-50
2023/02/25 06:51:29;;;;;;;;;;;;;;;2.28;90.88;92701.66;5026242;28;19917;-50
2023/02/25 06:53:54;;;;;;;;;;;;;;;2.34;91.32;92693.44;5022594;28;20066;-49
2023/02/25 06:56:20;;;;;;;;;;;;;;;2.43;91.56;92698.50;5022358;28;19921;-53
2023/02/25 06:58:45;;;;;;;;;;;;;;;2.66;91.17;92691.53;5022103;28;20774;-50
2023/02/25 07:01:12;;;;;;;;;;;;;;;2.88;89.28;92697.41;5026496;28;19917;-51
2023/02/25 07:03:37;;;;;;;;;;;;;;;2.81;89.60;92687.13;5025286;28;20008;-52
2023/02/25 07:06:03;;;;;;;;;;;;;;;2.85;90.12;92695.72;5023656;28;20008;-52
2023/02/25 07:08:29;;;;;;;;;;;;;;;2.72;89.91;92690.22;5026862;28;19925;-52
2023/02/25 07:10:55;;;;;;;;;;;;;;;2.41;91.81;92684.66;5016086;28;19921;-51
2023/02/25 07:13:20;;;;;;;;;;;;;;;2.51;92.59;92674.91;5023612;28;19932;-53
2023/02/25 07:15:45;;;;;;;;;;;;;;;2.47;94.57;92677.19;5024574;28;20424;-56
2023/02/25 07:18:11;;;;;;;;;;;;;;;2.87;94.50;92671.41;5024924;28;19955;-53
2023/02/25 07:20:38;;;;;;;;;;;;;;;3.46;93.08;92666.78;5024088;28;19923;-54
2023/02/25 07:23:03;;;;;;;;;;;;;;;3.93;91.54;92659.47;5021788;28;19917;-53
2023/02/25 07:25:29;;;;;;;;;;;;;;;4.27;89.68;92652.09;5022784;28;19920;-55
2023/02/25 07:27:54;;;;;;;;;;;;;;;4.36;89.51;92635.28;5022876;28;20466;-53
2023/02/25 07:30:19;;;;;;;;;;;;;;;4.46;89.90;92639.03;5021705;28;19957;-53
2023/02/25 07:32:45;;;;;;;;;;;;;;;4.23;89.31;92632.56;5018888;28;19936;-52
2023/02/25 07:35:12;;;;;;;;;;;;;;;4.44;88.56;92627.91;4941197;28;1948484;-52
2023/02/25 07:37:37;;;;;;;;;;;;;;;5.01;87.69;92619.94;5024163;28;19928;-55
2023/02/25 07:40:04;;;;;;;;;;;;;;;5.87;83.19;92605.84;5013219;28;19913;-55
2023/02/25 07:42:29;;;;;;;;;;;;;;;6.86;79.72;92610.50;5011612;28;20573;-54
2023/02/25 07:44:54;;;;;;;;;;;;;;;7.15;77.41;92597.38;5012542;28;19928;-53
2023/02/25 07:47:20;;;;;;;;;;;;;;;7.64;75.02;92595.03;5011336;28;20382;-54
2023/02/25 07:49:46;;;;;;;;;;;;;;;7.40;76.17;92595.59;5017999;28;20355;-54
2023/02/25 07:52:11;;;;;;;;;;;;;;;7.36;77.70;92589.72;5012423;28;19921;-55
2023/02/25 07:54:37;;;;;;;;;;;;;;;7.40;78.77;92590.09;5018245;28;20330;-55
2023/02/25 07:57:03;;;;;;;;;;;;;;;6.74;80.61;92570.97;5017541;28;19963;-51
2023/02/25 07:59:32;;;;;;;;;;;;;;;6.78;82.06;92565.84;5018699;28;19928;-51
2023/02/25 08:01:58;;;;;;;;;;;;;;;7.19;80.56;92571.03;5017230;28;20554;-53
2023/02/25 08:04:23;;;;;;;;;;;;;;;6.84;82.49;92553.41;5023128;28;19928;-55
2023/02/25 08:06:50;;;;;;;;;;;;;;;7.35;81.51;92558.78;5020131;28;20799;-53
2023/02/25 08:09:16;;;;;;;;;;;;;;;8.71;78.10;92555.72;5022013;28;20305;-54
2023/02/25 08:11:41;;;;;;;;;;;;;;;10.32;72.64;92549.84;5017267;28;19920;-51
2023/02/25 08:14:06;;;;;;;;;;;;;;;11.39;67.86;92541.63;5021061;28;19920;-53
2023/02/25 08:16:32;;;;;;;;;;;;;;;12.14;64.25;92542.44;5020775;28;19925;-55
2023/02/25 08:18:57;;;;;;;;;;;;;;;12.55;61.25;92541.28;5019632;28;19924;-55
2023/02/25 08:21:23;;;;;;;;;;;;;;;11.95;60.97;92537.59;5022434;28;19967;-54
2023/02/25 08:23:49;;;;;;;;;;;;;;;11.09;64.47;92533.75;5021865;28;19921;-51
2023/02/25 08:26:16;;;;;;;;;;;;;;;11.70;63.00;92547.41;5021371;28;21225;-52
2023/02/25 08:28:41;;;;;;;;;;;;;;;12.09;60.44;92541.41;5024463;28;19917;-54
2023/02/25 08:31:10;;;;;;;;;;;;;;;12.73;54.77;92525.94;5022142;28;19936;-54
2023/02/25 08:33:35;;;;;;;;;;;;;;;13.17;55.76;92531.16;5024701;28;19955;-50
2023/02/25 08:36:27;;;;;;;;;;;;;;;13.85;51.10;92532.34;5019649;28;20405;-52
2023/02/25 08:38:53;;;;;;;;;;;;;;;15.36;50.06;92535.81;5020146;28;19921;-55
2023/02/25 08:41:19;;;;;;;;;;;;;;;16.73;46.25;92533.59;5019484;28;19917;-53
2023/02/25 08:43:47;;;;;;;;;;;;;;;17.09;42.59;92518.16;5023520;28;20010;-55
2023/02/25 08:46:12;;;;;;;;;;;;;;;18.43;42.17;92516.22;5021360;28;19924;-53
2023/02/25 08:48:37;;;;;;;;;;;;;;;18.80;39.34;92513.16;5024630;28;20385;-54
2023/02/25 08:51:07;;;;;;;;;;;;;;;19.71;37.44;92509.09;5019312;28;19924;-53
2023/02/25 08:53:34;;;;;;;;;;;;;;;19.69;34.53;92515.31;5020587;28;19971;-55
2023/02/25 08:56:18;;;;;;;;;;;;;;;18.41;37.78;92521.00;5023362;28;20004;-54
2023/02/25 08:58:43;;;;;;;;;;;;;;;19.01;36.79;92514.88;5019660;28;19975;-53
2023/02/25 09:01:12;;;;;;;;;;;;;;;20.43;33.78;92509.50;5021723;28;19925;-55
2023/02/25 09:03:50;;;;;;;;;;;;;;;19.94;33.39;92509.47;5022977;28;19924;-56
2023/02/25 09:06:15;;;;;;;;;;;;;;;17.37;38.56;92516.91;5023363;28;19917;-54
2023/02/25 09:08:40;;;;;;;;;;;;;;;16.86;41.69;92509.91;5023625;28;19924;-54
2023/02/25 09:11:06;;;;;;;;;;;;;;;16.74;40.66;92512.03;5022290;28;20014;-54
2023/02/25 09:13:31;;;;;;;;;;;;;;;15.93;44.27;92505.28;5023283;28;20003;-53
2023/02/25 09:15:57;;;;;;;;;;;;;;;16.33;43.47;92512.47;5019860;28;20076;-54
2023/02/25 09:18:22;;;;;;;;;;;;;;;15.79;42.38;92512.06;5018998;28;20393;-52
2023/02/25 09:20:50;;;;;;;;;;;;;;;15.42;43.90;92500.75;5018973;28;21257;-53
2023/02/25 09:23:16;;;;;;;;;;;;;;;15.97;43.35;92515.94;5020993;28;20007;-51
2023/02/25 09:25:43;;;;;;;;;;;;;;;15.11;44.34;92512.09;5018487;28;19928;-53
2023/02/25 09:28:08;;;;;;;;;;;;;;;15.39;44.36;92513.09;5020853;28;20440;-52
2023/02/25 09:30:34;;;;;;;;;;;;;;;15.41;43.66;92510.44;5020064;28;19970;-53
2023/02/25 09:32:59;;;;;;;;;;;;;;;15.57;43.89;92513.53;5016191;28;19922;-55
2023/02/25 09:35:24;;;;;;;;;;;;;;;15.93;43.12;92515.69;5017961;28;19925;-52
2023/02/25 09:37:49;;;;;;;;;;;;;;;16.39;40.62;92498.91;5017975;28;19944;-53
2023/02/25 09:40:17;;;;;;;;;;;;;;;16.33;40.84;92495.75;5020883;28;20312;-54
2023/02/25 09:43:02;;;;;;;;;;;;;;;16.24;40.66;92498.69;5023267;28;19921;-53
2023/02/25 09:45:29;;;;;;;;;;;;;;;15.88;40.33;92498.03;5014223;28;19921;-54
2023/02/25 09:48:17;;;;;;;;;;;;;;;15.54;42.51;92503.59;5023224;28;19921;-54
2023/02/25 09:50:45;;;;;;;;;;;;;;;15.36;45.12;92505.97;5026281;28;20455;-54
2023/02/25 09:53:14;;;;;;;;;;;;;;;15.62;43.11;92509.63;5019303;28;20436;-54
2023/02/25 09:55:40;;;;;;;;;;;;;;;15.59;42.86;92508.06;5021578;28;19976;-54
2023/02/25 09:58:07;;;;;;;;;;;;;;;15.67;40.95;92506.50;5022240;28;19979;-54
2023/02/25 10:00:35;;;;;;;;;;;;;;;15.13;41.03;92498.31;5024654;28;19921;-54
2023/02/25 10:03:24;;;;;;;;;;;;;;;14.30;41.90;92486.78;5025287;28;19971;-51
2023/02/25 10:05:59;;;;;;;;;;;;;;;13.79;42.95;92482.00;5016485;28;20032;-54
2023/02/25 10:08:27;;;;;;;;;;;;;;;13.39;44.90;92487.59;5015978;28;20012;-50
2023/02/25 10:11:02;;;;;;;;;;;;;;;13.03;48.09;92487.84;5027020;28;19917;-54
2023/02/25 10:13:54;;;;;;;;;;;;;;;12.84;50.26;92480.31;5024237;28;19948;-53
2023/02/25 10:16:19;;;;;;;;;;;;;;;12.49;49.43;92481.97;5001654;28;19917;-50
2023/02/25 10:19:03;;;;;;;;;;;;;;;12.78;48.05;92468.81;5018822;28;19932;-51
2023/02/25 10:21:31;;;;;;;;;;;;;;;12.39;52.10;92456.34;5016714;28;20080;-53
2023/02/25 10:24:15;;;;;;;;;;;;;;;12.35;52.19;92450.50;5022126;28;19920;-51
2023/02/25 10:26:46;;;;;;;;;;;;;;;12.26;51.49;92448.50;5023315;28;19929;-53
2023/02/25 10:29:12;;;;;;;;;;;;;;;12.13;53.25;92447.63;5024613;28;19921;-50
2023/02/25 10:31:38;;;;;;;;;;;;;;;12.34;52.96;92446.31;5018804;28;19956;-53
2023/02/25 10:34:37;;;;;;;;;;;;;;;12.30;54.59;92454.31;5020209;28;20003;-52
2023/02/25 10:37:03;;;;;;;;;;;;;;;12.38;53.18;92438.28;4991053;28;19921;-54
2023/02/25 10:39:30;;;;;;;;;;;;;;;12.12;53.84;92432.34;5025664;28;19970;-53
2023/02/25 10:41:55;;;;;;;;;;;;;;;12.34;53.02;92427.66;5021254;28;19928;-53
2023/02/25 10:44:20;;;;;;;;;;;;;;;12.28;52.79;92418.91;5026904;28;19917;-55
2023/02/25 10:46:49;;;;;;;;;;;;;;;12.24;53.18;92415.13;5023495;28;19975;-54
2023/02/25 10:49:15;;;;;;;;;;;;;;;12.46;52.08;92402.84;5022481;28;19920;-53
2023/02/25 10:51:56;;;;;;;;;;;;;;;12.53;52.08;92396.44;5023276;28;19925;-50
2023/02/25 10:54:23;;;;;;;;;;;;;;;12.57;50.28;92391.19;5026679;28;19913;-50
2023/02/25 10:56:48;;;;;;;;;;;;;;;12.65;49.76;92391.72;5018498;28;19917;-54
2023/02/25 10:59:23;;;;;;;;;;;;;;;12.64;49.91;92396.56;5019981;28;20364;-55
2023/02/25 11:01:48;;;;;;;;;;;;;;;12.54;51.29;92404.16;5019537;28;20002;-52
2023/02/25 11:04:14;;;;;;;;;;;;;;;12.28;52.01;92385.69;5024410;28;20392;-53
2023/02/25 11:06:40;;;;;;;;;;;;;;;12.31;51.63;92389.34;5021076;28;19975;-51
2023/02/25 11:09:26;;;;;;;;;;;;;;;12.27;52.12;92392.56;5025925;28;20352;-53
2023/02/25 11:11:59;;;;;;;;;;;;;;;11.99;53.02;92369.16;5013408;28;19924;-54
2023/02/25 11:14:28;;;;;;;;;;;;;;;12.12;53.67;92385.31;5021098;28;19913;-53
2023/02/25 11:17:02;;;;;;;;;;;;;;;12.25;53.28;92375.81;5024886;28;20411;-54
2023/02/25 11:19:28;;;;;;;;;;;;;;;12.38;52.82;92394.72;5026707;28;19952;-53
2023/02/25 11:21:54;;;;;;;;;;;;;;;12.52;51.97;92383.91;5017837;28;19996;-54
2023/02/25 11:24:32;;;;;;;;;;;;;;;12.65;52.52;92380.66;5017496;28;20000;-53
2023/02/25 11:26:57;;;;;;;;;;;;;;;12.52;52.24;92376.31;5015371;28;19926;-49
2023/02/25 11:29:26;;;;;;;;;;;;;;;12.72;51.43;92374.22;5023810;28;20764;-53
2023/02/25 11:31:57;;;;;;;;;;;;;;;12.46;51.88;92381.44;5025800;28;19921;-53
2023/02/25 11:34:23;;;;;;;;;;;;;;;12.36;50.05;92380.00;5023158;28;19925;-51
2023/02/25 11:36:49;;;;;;;;;;;;;;;12.26;52.26;92380.03;5024552;28;19998;-54
2023/02/25 11:39:20;;;;;;;;;;;;;;;12.27;53.87;92370.41;5014208;28;19921;-54
2023/02/25 11:41:47;;;;;;;;;;;;;;;12.44;50.65;92363.97;5014879;28;19922;-54
2023/02/25 11:44:18;;;;;;;;;;;;;;;12.42;51.23;92359.03;5013910;28;19944;-53
2023/02/25 11:46:43;;;;;;;;;;;;;;;12.52;51.05;92362.47;5019240;28;19936;-51
2023/02/25 11:49:09;;;;;;;;;;;;;;;12.61;50.14;92358.22;5018734;28;19921;-54
2023/02/25 11:51:53;;;;;;;;;;;;;;;12.46;51.52;92359.28;5022270;28;19932;-50
2023/02/25 11:54:37;;;;;;;;;;;;;;;12.50;52.06;92373.41;5024315;28;19956;-51
2023/02/25 11:57:05;;;;;;;;;;;;;;;12.50;52.04;92364.38;5022666;28;19928;-52
2023/02/25 11:59:30;;;;;;;;;;;;;;;12.56;51.59;92367.59;5020104;28;19925;-51
2023/02/25 12:02:15;;;;;;;;;;;;;;;12.85;49.32;92365.41;5020787;28;19928;-51
2023/02/25 12:05:00;;;;;;;;;;;;;;;12.80;49.78;92369.22;5020089;28;19936;-51
2023/02/25 12:07:38;;;;;;;;;;;;;;;12.70;50.69;92365.78;5003674;28;20547;-55
2023/02/25 12:10:17;;;;;;;;;;;;;;;12.82;50.30;92367.31;5019862;28;19928;-55
2023/02/25 12:12:51;;;;;;;;;;;;;;;12.73;49.59;92359.06;5018922;28;19925;-53
2023/02/25 12:15:35;;;;;;;;;;;;;;;12.66;50.16;92357.19;5022788;28;19917;-51
2023/02/25 12:18:05;;;;;;;;;;;;;;;12.88;50.05;92362.22;5023250;28;19923;-54
2023/02/25 12:20:53;;;;;;;;;;;;;;;12.99;48.76;92366.41;5017101;28;19921;-55
2023/02/25 12:23:31;;;;;;;;;;;;;;;13.00;48.56;92365.06;5019747;28;20018;-54
2023/02/25 12:26:03;;;;;;;;;;;;;;;12.93;48.71;92377.03;5020692;28;19917;-54
2023/02/25 12:28:28;;;;;;;;;;;;;;;12.86;48.96;92361.34;5024952;28;19921;-55
2023/02/25 12:31:13;;;;;;;;;;;;;;;12.85;48.88;92362.66;5026089;28;19917;-55
2023/02/25 12:33:41;;;;;;;;;;;;;;;12.81;49.26;92360.34;5013989;28;19925;-55
2023/02/25 12:36:14;;;;;;;;;;;;;;;12.63;49.89;92353.56;5011265;28;20428;-54
2023/02/25 12:38:54;;;;;;;;;;;;;;;12.56;50.12;92354.44;5016396;28;20432;-55
2023/02/25 12:41:23;;;;;;;;;;;;;;;12.64;49.05;92352.25;5016937;28;20155;-55
2023/02/25 12:43:53;;;;;;;;;;;;;;;12.64;48.25;92359.81;5016545;28;20385;-56
2023/02/25 12:46:27;;;;;;;;;;;;;;;12.82;47.31;92350.00;5017038;28;20010;-54
2023/02/25 12:48:58;;;;;;;;;;;;;;;12.91;47.90;92341.63;5015115;28;20420;-54
2023/02/25 12:51:36;;;;;;;;;;;;;;;13.02;46.12;92345.06;5016060;28;19913;-54
2023/02/25 12:54:13;;;;;;;;;;;;;;;12.95;47.53;92332.84;5023288;28;19975;-52